createdAt,value
2017-02-20T00:00:56.526Z,0
2017-02-20T00:01:56.540Z,0
2017-02-20T00:02:56.519Z,0
2017-02-20T00:03:56.508Z,0
2017-02-20T00:04:56.497Z,0
2017-02-20T00:05:56.479Z,0
2017-02-20T00:06:56.486Z,0
2017-02-20T00:07:56.463Z,0
2017-02-20T00:08:56.428Z,0
2017-02-20T00:09:56.441Z,0
2017-02-20T00:10:56.427Z,0
2017-02-20T00:11:56.426Z,0
2017-02-20T00:12:56.422Z,0
2017-02-20T00:13:56.387Z,0
2017-02-20T00:14:56.403Z,0
2017-02-20T00:15:56.373Z,0
2017-02-20T00:16:56.361Z,0
2017-02-20T00:17:56.354Z,0
2017-02-20T00:18:56.333Z,0
2017-02-20T00:19:56.333Z,0
2017-02-20T00:20:56.333Z,0
2017-02-20T00:21:56.312Z,0
2017-02-20T00:22:56.320Z,0
2017-02-20T00:23:56.315Z,0
2017-02-20T00:24:56.270Z,0
2017-02-20T00:25:56.289Z,0
2017-02-20T00:26:56.266Z,0
2017-02-20T00:27:56.236Z,0
2017-02-20T00:28:56.244Z,0
2017-02-20T00:29:56.233Z,0
2017-02-20T00:30:56.222Z,0
2017-02-20T00:31:56.212Z,0
2017-02-20T00:32:56.213Z,0
2017-02-20T00:33:56.185Z,0
2017-02-20T00:34:56.185Z,0
2017-02-20T00:35:56.178Z,0
2017-02-20T00:36:56.158Z,0
2017-02-20T00:37:56.145Z,0
2017-02-20T00:38:56.126Z,0
2017-02-20T00:39:56.150Z,0
2017-02-20T00:40:56.098Z,0
2017-02-20T00:41:56.125Z,0
2017-02-20T00:42:56.111Z,0
2017-02-20T00:43:56.066Z,0
2017-02-20T00:44:56.058Z,0
2017-02-20T00:45:56.071Z,0
2017-02-20T00:46:56.059Z,0
2017-02-20T00:47:56.046Z,0
2017-02-20T00:48:56.025Z,0
2017-02-20T00:49:56.026Z,0
2017-02-20T00:50:56.007Z,0
2017-02-20T00:51:56.013Z,0
2017-02-20T00:52:56.020Z,0
2017-02-20T00:53:55.994Z,0
2017-02-20T00:54:55.965Z,0
2017-02-20T00:55:55.958Z,0
2017-02-20T00:56:55.929Z,0
2017-02-20T00:57:55.949Z,0
2017-02-20T00:58:55.930Z,0
2017-02-20T00:59:55.951Z,0
2017-02-20T01:00:55.892Z,0
2017-02-20T01:01:55.915Z,0
2017-02-20T01:02:55.906Z,0
2017-02-20T01:03:55.855Z,0
2017-02-20T01:04:55.863Z,0
2017-02-20T01:05:55.858Z,0
2017-02-20T01:06:55.833Z,0
2017-02-20T01:07:55.837Z,0
2017-02-20T01:08:55.817Z,0
2017-02-20T01:09:55.792Z,0
2017-02-20T01:10:55.804Z,0
2017-02-20T01:11:55.820Z,0
2017-02-20T01:12:55.777Z,0
2017-02-20T01:13:55.779Z,0
2017-02-20T01:14:55.773Z,0
2017-02-20T01:15:55.780Z,0
2017-02-20T01:16:55.759Z,0
2017-02-20T01:17:55.728Z,0
2017-02-20T01:18:55.718Z,0
2017-02-20T01:19:55.692Z,0
2017-02-20T01:20:55.695Z,0
2017-02-20T01:21:55.679Z,0
2017-02-20T01:22:55.656Z,0
2017-02-20T01:23:55.648Z,0
2017-02-20T01:24:55.655Z,0
2017-02-20T01:25:55.629Z,0
2017-02-20T01:26:55.609Z,0
2017-02-20T01:27:55.618Z,0
2017-02-20T01:28:55.601Z,0
2017-02-20T01:29:55.590Z,0
2017-02-20T01:30:55.588Z,0
2017-02-20T01:31:55.579Z,0
2017-02-20T01:32:55.581Z,0
2017-02-20T01:33:55.554Z,0
2017-02-20T01:34:55.543Z,0
2017-02-20T01:35:55.554Z,0
2017-02-20T01:36:55.551Z,0
2017-02-20T01:37:55.521Z,0
2017-02-20T01:38:55.498Z,0
2017-02-20T01:39:55.520Z,0
2017-02-20T01:40:55.485Z,0
2017-02-20T01:41:55.480Z,0
2017-02-20T01:42:55.458Z,0
2017-02-20T01:43:55.447Z,0
2017-02-20T01:44:55.449Z,0
2017-02-20T01:45:55.423Z,0
2017-02-20T01:46:55.434Z,0
2017-02-20T01:47:55.417Z,0
2017-02-20T01:48:55.384Z,0
2017-02-20T01:49:55.420Z,0
2017-02-20T01:50:55.381Z,0
2017-02-20T01:51:55.382Z,0
2017-02-20T01:52:55.352Z,0
2017-02-20T01:53:55.338Z,0
2017-02-20T01:54:55.336Z,0
2017-02-20T01:55:55.345Z,0
2017-02-20T01:56:55.337Z,0
2017-02-20T01:57:55.285Z,0
2017-02-20T01:58:55.295Z,0
2017-02-20T01:59:55.304Z,0
2017-02-20T02:00:55.267Z,0
2017-02-20T02:01:55.268Z,0
2017-02-20T02:02:55.246Z,0
2017-02-20T02:03:55.240Z,0
2017-02-20T02:04:55.257Z,0
2017-02-20T02:05:54.830Z,0
2017-02-20T02:06:55.223Z,0
2017-02-20T02:07:55.204Z,0
2017-02-20T02:08:55.203Z,0
2017-02-20T02:09:55.170Z,0
2017-02-20T02:10:55.157Z,0
2017-02-20T02:11:55.171Z,0
2017-02-20T02:12:55.167Z,0
2017-02-20T02:13:55.138Z,0
2017-02-20T02:14:55.123Z,0
2017-02-20T02:15:54.746Z,0
2017-02-20T02:16:54.709Z,0
2017-02-20T02:17:55.096Z,0
2017-02-20T02:18:55.110Z,0
2017-02-20T02:19:55.073Z,0
2017-02-20T02:20:55.063Z,0
2017-02-20T02:21:55.045Z,0
2017-02-20T02:22:55.040Z,0
2017-02-20T02:23:55.031Z,0
2017-02-20T02:24:55.036Z,0
2017-02-20T02:25:54.999Z,0
2017-02-20T02:26:54.990Z,0
2017-02-20T02:27:55.289Z,0
2017-02-20T02:28:55.000Z,0
2017-02-20T02:29:54.970Z,0
2017-02-20T02:30:54.940Z,0
2017-02-20T02:31:54.936Z,0
2017-02-20T02:32:54.922Z,0
2017-02-20T02:33:54.925Z,0
2017-02-20T02:34:54.897Z,0
2017-02-20T02:35:54.900Z,0
2017-02-20T02:36:54.904Z,0
2017-02-20T02:37:54.870Z,0
2017-02-20T02:38:54.904Z,0
2017-02-20T02:39:54.833Z,0
2017-02-20T02:40:54.843Z,0
2017-02-20T02:41:54.838Z,0
2017-02-20T02:42:54.828Z,0
2017-02-20T02:43:54.820Z,0
2017-02-20T02:44:54.800Z,0
2017-02-20T02:45:54.811Z,0
2017-02-20T02:46:54.784Z,0
2017-02-20T02:47:54.793Z,0
2017-02-20T02:48:54.767Z,0
2017-02-20T02:49:54.747Z,0
2017-02-20T02:50:54.723Z,0
2017-02-20T02:51:54.739Z,0
2017-02-20T02:52:54.718Z,0
2017-02-20T02:53:54.685Z,0
2017-02-20T02:54:54.709Z,0
2017-02-20T02:55:54.699Z,0
2017-02-20T02:56:54.694Z,0
2017-02-20T02:57:54.673Z,0
2017-02-20T02:58:54.695Z,0
2017-02-20T02:59:54.260Z,0
2017-02-20T03:00:54.626Z,4
2017-02-20T03:01:54.661Z,4
2017-02-20T03:02:54.613Z,4
2017-02-20T03:03:54.590Z,4
2017-02-20T03:04:54.591Z,4
2017-02-20T03:05:54.578Z,0
2017-02-20T03:06:54.548Z,0
2017-02-20T03:07:54.555Z,0
2017-02-20T03:08:54.564Z,0
2017-02-20T03:09:54.543Z,0
2017-02-20T03:10:54.539Z,0
2017-02-20T03:11:54.516Z,0
2017-02-20T03:12:54.124Z,0
2017-02-20T03:13:54.483Z,0
2017-02-20T03:14:54.516Z,0
2017-02-20T03:15:54.473Z,0
2017-02-20T03:16:54.464Z,0
2017-02-20T03:17:54.449Z,0
2017-02-20T03:18:54.442Z,0
2017-02-20T03:19:54.425Z,0
2017-02-20T03:20:54.407Z,0
2017-02-20T03:21:54.400Z,0
2017-02-20T03:22:54.397Z,0
2017-02-20T03:23:54.381Z,0
2017-02-20T03:24:54.378Z,0
2017-02-20T03:25:54.384Z,0
2017-02-20T03:26:54.347Z,0
2017-02-20T03:27:54.349Z,0
2017-02-20T03:28:54.340Z,0
2017-02-20T03:29:54.331Z,0
2017-02-20T03:30:54.307Z,0
2017-02-20T03:31:54.329Z,0
2017-02-20T03:32:54.293Z,0
2017-02-20T03:33:54.279Z,0
2017-02-20T03:34:54.282Z,0
2017-02-20T03:35:54.268Z,0
2017-02-20T03:36:54.245Z,0
2017-02-20T03:37:54.267Z,0
2017-02-20T03:38:54.212Z,0
2017-02-20T03:39:54.209Z,0
2017-02-20T03:40:54.219Z,0
2017-02-20T03:41:54.205Z,0
2017-02-20T03:42:54.179Z,0
2017-02-20T03:43:54.185Z,0
2017-02-20T03:44:54.155Z,0
2017-02-20T03:45:54.139Z,0
2017-02-20T03:46:54.152Z,0
2017-02-20T03:47:54.116Z,0
2017-02-20T03:48:54.116Z,0
2017-02-20T03:49:53.708Z,0
2017-02-20T03:50:54.097Z,0
2017-02-20T03:51:54.098Z,0
2017-02-20T03:52:54.075Z,0
2017-02-20T03:53:54.094Z,0
2017-02-20T03:54:53.665Z,0
2017-02-20T03:55:54.043Z,0
2017-02-20T03:56:54.044Z,0
2017-02-20T03:57:54.031Z,0
2017-02-20T03:58:54.021Z,0
2017-02-20T03:59:54.007Z,0
2017-02-20T04:00:53.991Z,0
2017-02-20T04:01:53.986Z,0
2017-02-20T04:02:53.963Z,0
2017-02-20T04:03:53.961Z,0
2017-02-20T04:04:53.944Z,0
2017-02-20T04:05:53.954Z,0
2017-02-20T04:06:53.949Z,0
2017-02-20T04:07:53.936Z,0
2017-02-20T04:08:53.896Z,0
2017-02-20T04:09:53.904Z,0
2017-02-20T04:10:53.902Z,0
2017-02-20T04:11:53.875Z,0
2017-02-20T04:12:53.875Z,0
2017-02-20T04:13:53.856Z,0
2017-02-20T04:14:53.864Z,0
2017-02-20T04:15:53.835Z,0
2017-02-20T04:16:53.828Z,0
2017-02-20T04:17:53.803Z,0
2017-02-20T04:18:53.823Z,0
2017-02-20T04:19:53.793Z,0
2017-02-20T04:20:53.792Z,0
2017-02-20T04:21:53.390Z,0
2017-02-20T04:22:53.763Z,0
2017-02-20T04:23:53.751Z,0
2017-02-20T04:24:53.741Z,0
2017-02-20T04:25:53.750Z,0
2017-02-20T04:26:53.722Z,0
2017-02-20T04:27:53.729Z,0
2017-02-20T04:28:53.711Z,0
2017-02-20T04:29:53.702Z,0
2017-02-20T04:30:53.693Z,0
2017-02-20T04:31:53.664Z,0
2017-02-20T04:32:53.671Z,0
2017-02-20T04:33:53.664Z,0
2017-02-20T04:34:53.642Z,0
2017-02-20T04:35:53.641Z,0
2017-02-20T04:36:53.629Z,0
2017-02-20T04:37:53.628Z,0
2017-02-20T04:38:53.617Z,0
2017-02-20T04:39:53.582Z,0
2017-02-20T04:40:53.577Z,0
2017-02-20T04:41:53.567Z,0
2017-02-20T04:42:53.573Z,0
2017-02-20T04:43:53.557Z,0
2017-02-20T04:44:53.560Z,0
2017-02-20T04:45:53.523Z,0
2017-02-20T04:46:53.519Z,0
2017-02-20T04:47:53.511Z,0
2017-02-20T04:48:53.504Z,0
2017-02-20T04:49:53.492Z,0
2017-02-20T04:50:53.492Z,0
2017-02-20T04:51:53.464Z,0
2017-02-20T04:52:53.461Z,0
2017-02-20T04:53:53.440Z,0
2017-02-20T04:54:53.446Z,0
2017-02-20T04:55:53.431Z,0
2017-02-20T04:56:53.407Z,0
2017-02-20T04:57:53.409Z,0
2017-02-20T04:58:53.403Z,0
2017-02-20T04:59:53.377Z,0
2017-02-20T05:00:53.365Z,0
2017-02-20T05:01:53.351Z,0
2017-02-20T05:02:53.351Z,0
2017-02-20T05:03:53.345Z,0
2017-02-20T05:04:53.326Z,0
2017-02-20T05:05:53.315Z,0
2017-02-20T05:06:53.308Z,0
2017-02-20T05:07:53.309Z,0
2017-02-20T05:08:53.273Z,0
2017-02-20T05:09:53.315Z,0
2017-02-20T05:10:53.255Z,0
2017-02-20T05:11:53.250Z,0
2017-02-20T05:12:53.233Z,0
2017-02-20T05:13:53.248Z,0
2017-02-20T05:14:53.223Z,0
2017-02-20T05:15:53.200Z,0
2017-02-20T05:16:53.207Z,0
2017-02-20T05:17:53.172Z,0
2017-02-20T05:18:53.196Z,0
2017-02-20T05:19:53.188Z,0
2017-02-20T05:20:52.761Z,0
2017-02-20T05:21:53.150Z,0
2017-02-20T05:22:53.137Z,0
2017-02-20T05:23:53.120Z,0
2017-02-20T05:24:53.112Z,0
2017-02-20T05:25:53.112Z,0
2017-02-20T05:26:53.081Z,0
2017-02-20T05:27:53.063Z,0
2017-02-20T05:28:53.056Z,0
2017-02-20T05:29:53.045Z,0
2017-02-20T05:30:53.050Z,0
2017-02-20T05:31:53.023Z,0
2017-02-20T05:32:52.638Z,0
2017-02-20T05:33:53.011Z,0
2017-02-20T05:34:53.003Z,0
2017-02-20T05:35:52.984Z,0
2017-02-20T05:36:52.983Z,0
2017-02-20T05:37:52.968Z,0
2017-02-20T05:38:53.207Z,0
2017-02-20T05:39:52.950Z,0
2017-02-20T05:40:52.988Z,4
2017-02-20T05:41:52.939Z,0
2017-02-20T05:42:52.913Z,0
2017-02-20T05:43:52.910Z,4
2017-02-20T05:44:52.908Z,4
2017-02-20T05:45:52.899Z,4
2017-02-20T05:46:52.875Z,4
2017-02-20T05:47:52.861Z,8
2017-02-20T05:48:52.846Z,8
2017-02-20T05:49:52.840Z,12
2017-02-20T05:50:52.839Z,8
2017-02-20T05:51:52.841Z,12
2017-02-20T05:52:52.816Z,16
2017-02-20T05:53:52.825Z,16
2017-02-20T05:54:52.801Z,20
2017-02-20T05:55:52.776Z,20
2017-02-20T05:56:52.801Z,28
2017-02-20T05:57:52.783Z,28
2017-02-20T05:58:52.758Z,40
2017-02-20T05:59:52.756Z,44
2017-02-20T06:00:52.743Z,48
2017-02-20T06:01:52.716Z,60
2017-02-20T06:02:52.718Z,80
2017-02-20T06:03:52.702Z,100
2017-02-20T06:04:52.689Z,124
2017-02-20T06:05:52.679Z,132
2017-02-20T06:06:52.675Z,140
2017-02-20T06:07:52.673Z,136
2017-02-20T06:08:52.657Z,148
2017-02-20T06:09:52.632Z,172
2017-02-20T06:10:52.633Z,200
2017-02-20T06:11:52.617Z,200
2017-02-20T06:12:52.625Z,196
2017-02-20T06:13:52.598Z,204
2017-02-20T06:14:52.633Z,192
2017-02-20T06:15:52.568Z,196
2017-02-20T06:16:52.563Z,216
2017-02-20T06:17:52.550Z,236
2017-02-20T06:18:52.542Z,248
2017-02-20T06:19:52.529Z,280
2017-02-20T06:20:52.138Z,308
2017-02-20T06:21:52.510Z,340
2017-02-20T06:22:52.498Z,368
2017-02-20T06:23:52.495Z,380
2017-02-20T06:24:52.499Z,420
2017-02-20T06:25:52.467Z,460
2017-02-20T06:26:52.463Z,484
2017-02-20T06:27:52.438Z,528
2017-02-20T06:28:52.434Z,580
2017-02-20T06:29:52.431Z,628
2017-02-20T06:30:52.407Z,672
2017-02-20T06:31:52.400Z,640
2017-02-20T06:32:52.406Z,628
2017-02-20T06:33:52.386Z,620
2017-02-20T06:34:52.371Z,644
2017-02-20T06:35:52.361Z,712
2017-02-20T06:36:52.349Z,720
2017-02-20T06:37:52.369Z,720
2017-02-20T06:38:52.326Z,764
2017-02-20T06:39:52.331Z,876
2017-02-20T06:40:52.308Z,880
2017-02-20T06:41:52.302Z,924
2017-02-20T06:42:52.303Z,1040
2017-02-20T06:43:52.277Z,1160
2017-02-20T06:44:52.274Z,1308
2017-02-20T06:45:52.269Z,1420
2017-02-20T06:46:52.246Z,1596
2017-02-20T06:47:52.240Z,1660
2017-02-20T06:48:52.229Z,1612
2017-02-20T06:49:52.230Z,1616
2017-02-20T06:50:52.201Z,1696
2017-02-20T06:51:51.795Z,1728
2017-02-20T06:52:52.183Z,1724
2017-02-20T06:53:52.188Z,1804
2017-02-20T06:54:52.173Z,1908
2017-02-20T06:55:52.176Z,2048
2017-02-20T06:56:52.174Z,2176
2017-02-20T06:57:52.146Z,2408
2017-02-20T06:58:52.116Z,2484
2017-02-20T06:59:52.110Z,2468
2017-02-20T07:00:52.100Z,2576
2017-02-20T07:01:52.088Z,2576
2017-02-20T07:02:52.083Z,2648
2017-02-20T07:03:52.081Z,2780
2017-02-20T07:04:52.063Z,2940
2017-02-20T07:05:52.061Z,2964
2017-02-20T07:06:52.053Z,2720
2017-02-20T07:07:52.027Z,2568
2017-02-20T07:08:52.026Z,2696
2017-02-20T07:09:52.012Z,2872
2017-02-20T07:10:52.010Z,2744
2017-02-20T07:11:52.000Z,2632
2017-02-20T07:12:51.974Z,2684
2017-02-20T07:13:52.020Z,2652
2017-02-20T07:14:51.969Z,2420
2017-02-20T07:15:51.941Z,2168
2017-02-20T07:16:51.952Z,2112
2017-02-20T07:17:51.939Z,2284
2017-02-20T07:18:51.917Z,2504
2017-02-20T07:19:51.917Z,2708
2017-02-20T07:20:51.913Z,3052
2017-02-20T07:21:51.899Z,3048
2017-02-20T07:22:51.877Z,2840
2017-02-20T07:23:51.887Z,2836
2017-02-20T07:24:51.861Z,2976
2017-02-20T07:25:51.861Z,3308
2017-02-20T07:26:51.847Z,3476
2017-02-20T07:27:51.863Z,3432
2017-02-20T07:28:51.819Z,3716
2017-02-20T07:29:51.823Z,3940
2017-02-20T07:30:51.809Z,4020
2017-02-20T07:31:51.786Z,4068
2017-02-20T07:32:51.787Z,4224
2017-02-20T07:33:51.782Z,4312
2017-02-20T07:34:51.760Z,4388
2017-02-20T07:35:51.751Z,4368
2017-02-20T07:36:51.770Z,4388
2017-02-20T07:37:51.747Z,4460
2017-02-20T07:38:51.740Z,4552
2017-02-20T07:39:51.714Z,4596
2017-02-20T07:40:51.722Z,4944
2017-02-20T07:41:51.697Z,5340
2017-02-20T07:42:51.714Z,5300
2017-02-20T07:43:51.695Z,4816
2017-02-20T07:44:51.679Z,4312
2017-02-20T07:45:51.665Z,4132
2017-02-20T07:46:51.657Z,4240
2017-02-20T07:47:51.645Z,4020
2017-02-20T07:48:51.629Z,3824
2017-02-20T07:49:51.640Z,3696
2017-02-20T07:50:51.617Z,3636
2017-02-20T07:51:51.598Z,3592
2017-02-20T07:52:51.628Z,3648
2017-02-20T07:53:51.584Z,3740
2017-02-20T07:54:51.582Z,3748
2017-02-20T07:55:51.583Z,4092
2017-02-20T07:56:51.581Z,4320
2017-02-20T07:57:51.560Z,4260
2017-02-20T07:58:51.845Z,4424
2017-02-20T07:59:51.523Z,4444
2017-02-20T08:00:51.126Z,4968
2017-02-20T08:01:51.513Z,4968
2017-02-20T08:02:51.516Z,4472
2017-02-20T08:03:51.528Z,4288
2017-02-20T08:04:51.481Z,4732
2017-02-20T08:05:51.495Z,5064
2017-02-20T08:06:51.477Z,4584
2017-02-20T08:07:51.472Z,4224
2017-02-20T08:08:51.445Z,4200
2017-02-20T08:09:51.443Z,4776
2017-02-20T08:10:51.425Z,4492
2017-02-20T08:11:51.442Z,4408
2017-02-20T08:12:51.455Z,4296
2017-02-20T08:13:51.411Z,4552
2017-02-20T08:14:51.412Z,4924
2017-02-20T08:15:51.399Z,4824
2017-02-20T08:16:51.398Z,3848
2017-02-20T08:17:51.401Z,3820
2017-02-20T08:18:51.356Z,3328
2017-02-20T08:19:51.354Z,3428
2017-02-20T08:20:51.353Z,3656
2017-02-20T08:21:51.356Z,3584
2017-02-20T08:22:51.333Z,3700
2017-02-20T08:23:51.352Z,3636
2017-02-20T08:24:51.298Z,3784
2017-02-20T08:25:51.301Z,4536
2017-02-20T08:26:51.291Z,5608
2017-02-20T08:27:51.295Z,6124
2017-02-20T08:28:50.889Z,6356
2017-02-20T08:29:51.274Z,6688
2017-02-20T08:30:51.263Z,6564
2017-02-20T08:31:51.251Z,6356
2017-02-20T08:32:51.242Z,7064
2017-02-20T08:33:51.241Z,7344
2017-02-20T08:34:51.221Z,7200
2017-02-20T08:35:51.199Z,7536
2017-02-20T08:36:51.218Z,8224
2017-02-20T08:37:51.239Z,8596
2017-02-20T08:38:51.198Z,8756
2017-02-20T08:39:51.176Z,8456
2017-02-20T08:40:51.189Z,8460
2017-02-20T08:41:51.168Z,8512
2017-02-20T08:42:51.134Z,8580
2017-02-20T08:43:51.151Z,8904
2017-02-20T08:44:51.132Z,9212
2017-02-20T08:45:51.125Z,9516
2017-02-20T08:46:50.725Z,9716
2017-02-20T08:47:51.117Z,9352
2017-02-20T08:48:51.096Z,8660
2017-02-20T08:49:51.083Z,8060
2017-02-20T08:50:51.089Z,7452
2017-02-20T08:51:51.086Z,7460
2017-02-20T08:52:50.674Z,7476
2017-02-20T08:53:51.081Z,7640
2017-02-20T08:54:51.049Z,7432
2017-02-20T08:55:51.053Z,7428
2017-02-20T08:56:50.632Z,7976
2017-02-20T08:57:51.021Z,8636
2017-02-20T08:58:51.310Z,9208
2017-02-20T08:59:51.011Z,9432
2017-02-20T09:00:51.001Z,8688
2017-02-20T09:01:50.982Z,7864
2017-02-20T09:02:50.981Z,7244
2017-02-20T09:03:50.991Z,6712
2017-02-20T09:04:50.965Z,6348
2017-02-20T09:05:50.972Z,6184
2017-02-20T09:06:50.972Z,6276
2017-02-20T09:07:50.582Z,6404
2017-02-20T09:08:50.965Z,6644
2017-02-20T09:09:50.931Z,7120
2017-02-20T09:10:50.923Z,7824
2017-02-20T09:11:50.542Z,8628
2017-02-20T09:12:50.910Z,9036
2017-02-20T09:13:50.919Z,9572
2017-02-20T09:14:50.878Z,10016
2017-02-20T09:15:50.895Z,10384
2017-02-20T09:16:50.904Z,11000
2017-02-20T09:17:50.872Z,11176
2017-02-20T09:18:50.471Z,10992
2017-02-20T09:19:50.084Z,10772
2017-02-20T09:20:50.840Z,10216
2017-02-20T09:21:50.446Z,9756
2017-02-20T09:22:50.443Z,9700
2017-02-20T09:23:50.836Z,9680
2017-02-20T09:24:50.829Z,9708
2017-02-20T09:25:50.803Z,9644
2017-02-20T09:26:50.795Z,9440
2017-02-20T09:27:50.419Z,9184
2017-02-20T09:28:50.800Z,8920
2017-02-20T09:29:50.404Z,8788
2017-02-20T09:30:50.777Z,8828
2017-02-20T09:31:50.780Z,9032
2017-02-20T09:32:50.368Z,9440
2017-02-20T09:33:50.782Z,10008
2017-02-20T09:34:50.781Z,10656
2017-02-20T09:35:50.343Z,11092
2017-02-20T09:36:50.774Z,11456
2017-02-20T09:37:50.323Z,12044
2017-02-20T09:38:50.333Z,12844
2017-02-20T09:39:50.953Z,13512
2017-02-20T09:40:50.331Z,14212
2017-02-20T09:41:50.299Z,14612
2017-02-20T09:42:50.306Z,14704
2017-02-20T09:43:50.693Z,14744
2017-02-20T09:44:50.302Z,14736
2017-02-20T09:45:50.675Z,14476
2017-02-20T09:46:50.276Z,13828
2017-02-20T09:47:50.668Z,12944
2017-02-20T09:48:50.269Z,12216
2017-02-20T09:49:50.263Z,11756
2017-02-20T09:50:50.255Z,11440
2017-02-20T09:51:50.642Z,11280
2017-02-20T09:52:50.258Z,11084
2017-02-20T09:53:50.230Z,10684
2017-02-20T09:54:50.609Z,10512
2017-02-20T09:55:50.616Z,10660
2017-02-20T09:56:50.598Z,10796
2017-02-20T09:57:50.584Z,10648
2017-02-20T09:58:50.592Z,10524
2017-02-20T09:59:50.192Z,10624
2017-02-20T10:00:50.606Z,10756
2017-02-20T10:01:50.569Z,10828
2017-02-20T10:02:50.561Z,10956
2017-02-20T10:03:50.561Z,10860
2017-02-20T10:04:50.159Z,10600
2017-02-20T10:05:50.554Z,10424
2017-02-20T10:06:50.528Z,10288
2017-02-20T10:07:50.143Z,10480
2017-02-20T10:08:50.527Z,11076
2017-02-20T10:09:50.503Z,11600
2017-02-20T10:10:50.523Z,11804
2017-02-20T10:11:49.731Z,11772
2017-02-20T10:12:50.500Z,11596
2017-02-20T10:13:50.480Z,11412
2017-02-20T10:14:50.487Z,11336
2017-02-20T10:15:50.507Z,11340
2017-02-20T10:16:50.481Z,11372
2017-02-20T10:17:50.457Z,11472
2017-02-20T10:18:50.468Z,11660
2017-02-20T10:19:50.461Z,11892
2017-02-20T10:20:50.469Z,12104
2017-02-20T10:21:50.445Z,12088
2017-02-20T10:22:50.449Z,11900
2017-02-20T10:23:50.435Z,11732
2017-02-20T10:24:50.440Z,11604
2017-02-20T10:25:50.407Z,11500
2017-02-20T10:26:50.416Z,11520
2017-02-20T10:27:50.408Z,11580
2017-02-20T10:28:50.417Z,11724
2017-02-20T10:29:50.399Z,11924
2017-02-20T10:30:50.392Z,12176
2017-02-20T10:31:50.389Z,12340
2017-02-20T10:32:50.386Z,12480
2017-02-20T10:33:50.383Z,12592
2017-02-20T10:34:50.356Z,12536
2017-02-20T10:35:50.373Z,12520
2017-02-20T10:36:50.368Z,12516
2017-02-20T10:37:49.967Z,12584
2017-02-20T10:38:50.349Z,12436
2017-02-20T10:39:50.338Z,12292
2017-02-20T10:40:50.320Z,12120
2017-02-20T10:41:50.325Z,11428
2017-02-20T10:42:50.329Z,10584
2017-02-20T10:43:50.331Z,9680
2017-02-20T10:44:50.297Z,9004
2017-02-20T10:45:50.304Z,8936
2017-02-20T10:46:50.312Z,9168
2017-02-20T10:47:50.275Z,9640
2017-02-20T10:48:50.279Z,10040
2017-02-20T10:49:49.901Z,9824
2017-02-20T10:50:50.269Z,9500
2017-02-20T10:51:50.282Z,9556
2017-02-20T10:52:50.251Z,10052
2017-02-20T10:53:49.884Z,10824
2017-02-20T10:54:50.250Z,11580
2017-02-20T10:55:50.252Z,12348
2017-02-20T10:56:50.240Z,13180
2017-02-20T10:57:50.240Z,13972
2017-02-20T10:58:50.224Z,13812
2017-02-20T10:59:50.230Z,13332
2017-02-20T11:00:49.813Z,13432
2017-02-20T11:01:50.211Z,13480
2017-02-20T11:02:50.223Z,13216
2017-02-20T11:03:50.192Z,12892
2017-02-20T11:04:50.201Z,12716
2017-02-20T11:05:50.188Z,12348
2017-02-20T11:06:50.196Z,11848
2017-02-20T11:07:50.194Z,11416
2017-02-20T11:08:50.184Z,11196
2017-02-20T11:09:50.175Z,11256
2017-02-20T11:10:50.172Z,11960
2017-02-20T11:11:50.144Z,12124
2017-02-20T11:12:50.147Z,11652
2017-02-20T11:13:50.137Z,11112
2017-02-20T11:14:50.155Z,10400
2017-02-20T11:15:50.121Z,10252
2017-02-20T11:16:50.137Z,10140
2017-02-20T11:17:49.731Z,9892
2017-02-20T11:18:49.718Z,9516
2017-02-20T11:19:50.111Z,9572
2017-02-20T11:20:49.703Z,9736
2017-02-20T11:21:49.688Z,10168
2017-02-20T11:22:50.096Z,10788
2017-02-20T11:23:50.082Z,10888
2017-02-20T11:24:49.686Z,10676
2017-02-20T11:25:50.094Z,10032
2017-02-20T11:26:50.078Z,9784
2017-02-20T11:27:50.049Z,10564
2017-02-20T11:28:50.089Z,12300
2017-02-20T11:29:49.662Z,11232
2017-02-20T11:30:49.645Z,11076
2017-02-20T11:31:50.058Z,10840
2017-02-20T11:32:50.036Z,10720
2017-02-20T11:33:50.030Z,10788
2017-02-20T11:34:50.050Z,10648
2017-02-20T11:35:50.018Z,9216
2017-02-20T11:36:50.006Z,8728
2017-02-20T11:37:50.022Z,8948
2017-02-20T11:38:50.014Z,9156
2017-02-20T11:39:49.979Z,8732
2017-02-20T11:40:49.987Z,8628
2017-02-20T11:41:49.990Z,8588
2017-02-20T11:42:49.980Z,8848
2017-02-20T11:43:49.591Z,8928
2017-02-20T11:44:49.570Z,8924
2017-02-20T11:45:49.964Z,8240
2017-02-20T11:46:49.974Z,7536
2017-02-20T11:47:49.569Z,7516
2017-02-20T11:48:49.946Z,7640
2017-02-20T11:49:49.973Z,7892
2017-02-20T11:50:49.956Z,8152
2017-02-20T11:51:49.929Z,8052
2017-02-20T11:52:49.937Z,7668
2017-02-20T11:53:49.941Z,7436
2017-02-20T11:54:49.421Z,7488
2017-02-20T11:55:49.517Z,8260
2017-02-20T11:56:49.900Z,8956
2017-02-20T11:57:49.890Z,9356
2017-02-20T11:58:49.899Z,9528
2017-02-20T11:59:49.889Z,9536
2017-02-20T12:00:49.890Z,9092
2017-02-20T12:01:49.863Z,8992
2017-02-20T12:02:49.874Z,8496
2017-02-20T12:03:49.875Z,7852
2017-02-20T12:04:49.453Z,7768
2017-02-20T12:05:49.880Z,7860
2017-02-20T12:06:50.135Z,7340
2017-02-20T12:07:49.830Z,6932
2017-02-20T12:08:49.831Z,6612
2017-02-20T12:09:49.828Z,7012
2017-02-20T12:10:49.814Z,6964
2017-02-20T12:11:49.809Z,7192
2017-02-20T12:12:49.798Z,7836
2017-02-20T12:13:49.789Z,8852
2017-02-20T12:14:49.804Z,9228
2017-02-20T12:15:49.778Z,8972
2017-02-20T12:16:49.801Z,8840
2017-02-20T12:17:49.379Z,8628
2017-02-20T12:18:49.358Z,8624
2017-02-20T12:19:49.751Z,8620
2017-02-20T12:20:49.755Z,8064
2017-02-20T12:21:49.756Z,8156
2017-02-20T12:22:49.738Z,8152
2017-02-20T12:23:49.756Z,7932
2017-02-20T12:24:49.743Z,8212
2017-02-20T12:25:49.723Z,8312
2017-02-20T12:26:49.725Z,8396
2017-02-20T12:27:49.717Z,8648
2017-02-20T12:28:49.704Z,8560
2017-02-20T12:29:49.697Z,8676
2017-02-20T12:30:49.684Z,8904
2017-02-20T12:31:49.691Z,8800
2017-02-20T12:32:49.689Z,8932
2017-02-20T12:33:49.276Z,9852
2017-02-20T12:34:49.666Z,9988
2017-02-20T12:35:49.651Z,9856
2017-02-20T12:36:49.645Z,11092
2017-02-20T12:37:49.673Z,11856
2017-02-20T12:38:49.655Z,11780
2017-02-20T12:39:49.631Z,11408
2017-02-20T12:40:49.630Z,10972
2017-02-20T12:41:49.225Z,10564
2017-02-20T12:42:49.638Z,10108
2017-02-20T12:43:49.624Z,9764
2017-02-20T12:44:49.582Z,9212
2017-02-20T12:45:49.596Z,8796
2017-02-20T12:46:49.588Z,8540
2017-02-20T12:47:49.585Z,8424
2017-02-20T12:48:49.203Z,8540
2017-02-20T12:49:49.202Z,9080
2017-02-20T12:50:49.556Z,9560
2017-02-20T12:51:49.575Z,9968
2017-02-20T12:52:49.549Z,10356
2017-02-20T12:53:49.550Z,10840
2017-02-20T12:54:49.530Z,10992
2017-02-20T12:55:49.536Z,11076
2017-02-20T12:56:49.134Z,11144
2017-02-20T12:57:49.533Z,11284
2017-02-20T12:58:49.509Z,12220
2017-02-20T12:59:49.513Z,12252
2017-02-20T13:00:49.490Z,11972
2017-02-20T13:01:49.117Z,12404
2017-02-20T13:02:49.475Z,12752
2017-02-20T13:03:49.506Z,12740
2017-02-20T13:04:49.458Z,12396
2017-02-20T13:05:49.474Z,12252
2017-02-20T13:06:49.489Z,12412
2017-02-20T13:07:49.489Z,12076
2017-02-20T13:08:49.508Z,11136
2017-02-20T13:09:49.455Z,10804
2017-02-20T13:10:49.453Z,10368
2017-02-20T13:11:49.419Z,9188
2017-02-20T13:12:49.448Z,9060
2017-02-20T13:13:49.422Z,8420
2017-02-20T13:14:49.409Z,8292
2017-02-20T13:15:49.415Z,8288
2017-02-20T13:16:49.399Z,7640
2017-02-20T13:17:49.414Z,7848
2017-02-20T13:18:49.386Z,8316
2017-02-20T13:19:49.391Z,7724
2017-02-20T13:20:49.379Z,7648
2017-02-20T13:21:49.399Z,8104
2017-02-20T13:22:49.370Z,8072
2017-02-20T13:23:49.378Z,7176
2017-02-20T13:24:49.363Z,6332
2017-02-20T13:25:49.380Z,6028
2017-02-20T13:26:49.372Z,5860
2017-02-20T13:27:49.337Z,6052
2017-02-20T13:28:49.365Z,6316
2017-02-20T13:29:49.345Z,6476
2017-02-20T13:30:49.354Z,6800
2017-02-20T13:31:49.323Z,6800
2017-02-20T13:32:49.316Z,6504
2017-02-20T13:33:49.314Z,6004
2017-02-20T13:34:49.305Z,6440
2017-02-20T13:35:49.309Z,6932
2017-02-20T13:36:49.308Z,7492
2017-02-20T13:37:49.291Z,7304
2017-02-20T13:38:49.273Z,6128
2017-02-20T13:39:49.253Z,5412
2017-02-20T13:40:49.271Z,6372
2017-02-20T13:41:49.267Z,7676
2017-02-20T13:42:49.261Z,8572
2017-02-20T13:43:49.263Z,8312
2017-02-20T13:44:49.249Z,8428
2017-02-20T13:45:49.232Z,8196
2017-02-20T13:46:49.217Z,7648
2017-02-20T13:47:49.257Z,6112
2017-02-20T13:48:49.208Z,5908
2017-02-20T13:49:49.221Z,7160
2017-02-20T13:50:49.201Z,5988